createdAt,value
2018-12-13T00:02:02.364Z,68.13
2018-12-13T00:07:07.691Z,67.09
2018-12-13T00:12:11.943Z,67.28
2018-12-13T00:17:16.443Z,68.54
2018-12-13T00:22:20.697Z,67.62
2018-12-13T00:27:25.203Z,67.50
2018-12-13T00:32:29.388Z,67.03
2018-12-13T00:37:34.163Z,67.18
2018-12-13T00:42:38.527Z,68.39
2018-12-13T00:47:42.838Z,66.46
2018-12-13T00:52:47.139Z,67.09
2018-12-13T00:57:51.442Z,67.25
2018-12-13T01:02:55.641Z,67.69
2018-12-13T01:18:42.904Z,66.37
2018-12-13T01:23:47.303Z,66.64
2018-12-13T01:28:51.768Z,66.81
2018-12-13T01:33:56.484Z,66.31
2018-12-13T01:39:00.687Z,67.29
2018-12-13T01:44:05.103Z,66.47
2018-12-13T01:49:09.757Z,66.08
2018-12-13T01:54:14.423Z,66.49
2018-12-13T01:59:18.645Z,66.69
2018-12-13T02:09:32.844Z,65.52
2018-12-13T02:14:37.189Z,66.49
2018-12-13T02:19:41.578Z,66.45
2018-12-13T02:24:46.200Z,66.15
2018-12-13T02:29:51.173Z,66.82
2018-12-13T02:34:55.458Z,67.98
2018-12-13T02:40:00.049Z,66.26
2018-12-13T02:45:06.390Z,66.77
2018-12-13T02:50:10.767Z,66.51
2018-12-13T02:55:15.001Z,66.69
2018-12-13T03:00:19.429Z,66.96
2018-12-13T03:05:23.695Z,65.88
2018-12-13T03:10:27.948Z,66.54
2018-12-13T03:15:32.544Z,66.58
2018-12-13T03:20:37.922Z,66.61
2018-12-13T03:25:42.181Z,67.07
2018-12-13T03:30:46.459Z,66.94
2018-12-13T03:35:51.350Z,66.79
2018-12-13T03:40:55.660Z,67.25
2018-12-13T03:45:59.861Z,67.55
2018-12-13T03:51:04.159Z,68.17
2018-12-13T03:56:08.750Z,67.93
2018-12-13T04:01:13.029Z,68.10
2018-12-13T04:06:17.214Z,67.84
2018-12-13T04:11:21.430Z,67.34
2018-12-13T04:16:25.622Z,66.89
2018-12-13T04:21:30.203Z,67.61
2018-12-13T04:26:34.832Z,67.77
2018-12-13T04:31:39.248Z,67.74
2018-12-13T04:36:43.512Z,67.99
2018-12-13T04:41:47.743Z,68.15
2018-12-13T04:46:51.939Z,68.78
2018-12-13T04:51:56.629Z,69.11
2018-12-13T04:57:00.941Z,69.59
2018-12-13T05:02:05.680Z,69.65
2018-12-13T05:07:10.252Z,69.69
2018-12-13T05:12:14.414Z,70.17
2018-12-13T05:17:18.684Z,69.99
2018-12-13T05:22:23.647Z,69.89
2018-12-13T05:27:27.976Z,70.41
2018-12-13T05:32:32.869Z,70.79
2018-12-13T05:47:55.987Z,69.08
2018-12-13T05:53:00.209Z,70.92
2018-12-13T05:58:04.788Z,71.41
2018-12-13T06:03:09.265Z,72.72
2018-12-13T06:08:13.531Z,71.64
2018-12-13T06:13:17.992Z,72.53
2018-12-13T06:23:44.135Z,71.70
2018-12-13T06:28:49.220Z,71.52
2018-12-13T06:33:53.598Z,70.31
2018-12-13T06:38:58.159Z,70.64
2018-12-13T06:44:02.502Z,70.03
2018-12-13T06:49:06.852Z,69.97
2018-12-13T06:54:11.358Z,69.53
2018-12-13T06:59:15.603Z,70.56
2018-12-13T07:04:20.149Z,71.08
2018-12-13T07:09:24.766Z,70.92
2018-12-13T07:14:28.997Z,69.86
2018-12-13T07:19:33.667Z,69.21
2018-12-13T07:24:37.872Z,69.62
2018-12-13T07:29:42.925Z,70.32
2018-12-13T07:34:47.365Z,70.57
2018-12-13T07:39:52.430Z,69.36
2018-12-13T07:44:57.058Z,68.29
2018-12-13T07:50:01.390Z,67.47
2018-12-13T07:55:07.011Z,68.72
2018-12-13T08:00:11.517Z,68.05
2018-12-13T08:05:15.775Z,68.34
2018-12-13T08:10:20.020Z,67.80
2018-12-13T08:15:24.525Z,68.07
2018-12-13T08:20:29.148Z,67.32
2018-12-13T08:25:33.414Z,68.56
2018-12-13T08:30:38.898Z,68.73
2018-12-13T08:35:43.554Z,68.24
2018-12-13T08:40:48.094Z,68.51
2018-12-13T08:45:52.849Z,69.74
2018-12-13T08:50:57.108Z,71.20
2018-12-13T08:56:01.828Z,70.47
2018-12-13T09:01:06.319Z,69.76
2018-12-13T09:06:10.914Z,69.32
2018-12-13T09:11:15.140Z,68.96
2018-12-13T09:16:19.413Z,68.17
2018-12-13T09:21:23.720Z,68.85
2018-12-13T09:26:28.191Z,69.34
2018-12-13T09:31:34.430Z,69.07
2018-12-13T09:36:39.371Z,68.97
2018-12-13T09:41:44.282Z,68.42
2018-12-13T09:46:49.462Z,67.98
2018-12-13T09:51:53.986Z,69.47
2018-12-13T09:56:58.252Z,68.98
2018-12-13T10:02:03.016Z,68.89
2018-12-13T10:12:17.056Z,67.57
2018-12-13T10:17:21.471Z,67.35
2018-12-13T10:22:25.691Z,67.95
2018-12-13T10:27:29.984Z,67.45
2018-12-13T10:32:35.025Z,65.82
2018-12-13T10:37:39.329Z,66.41
2018-12-13T10:53:02.779Z,66.16
2018-12-13T10:58:07.148Z,65.31
2018-12-13T11:04:53.632Z,65.04
2018-12-13T11:09:57.938Z,65.48
2018-12-13T11:15:02.621Z,65.30
2018-12-13T11:20:09.428Z,64.88
2018-12-13T11:25:13.758Z,64.67
2018-12-13T11:30:25.069Z,65.15
2018-12-13T11:35:29.447Z,63.94
2018-12-13T11:40:34.202Z,63.53
2018-12-13T11:45:38.442Z,63.27
2018-12-13T11:50:42.872Z,62.34
2018-12-13T11:55:47.556Z,63.30
2018-12-13T12:00:51.948Z,61.92
2018-12-13T12:05:56.393Z,61.71
2018-12-13T12:11:00.928Z,62.67
2018-12-13T12:16:05.324Z,61.89
2018-12-13T12:21:10.017Z,62.31
2018-12-13T12:26:14.864Z,62.11
2018-12-13T12:31:19.296Z,61.32
2018-12-13T12:36:23.770Z,61.65
2018-12-13T12:41:28.128Z,62.76
2018-12-13T12:52:01.217Z,63.50
2018-12-13T12:57:05.987Z,63.68
2018-12-13T13:13:08.146Z,63.65
2018-12-13T13:18:12.945Z,62.71
2018-12-13T13:28:26.715Z,61.61
2018-12-13T13:33:31.715Z,61.97
2018-12-13T13:38:36.603Z,61.47
2018-12-13T13:43:41.161Z,60.75
2018-12-13T13:48:45.691Z,62.11
2018-12-13T13:53:51.567Z,61.91
2018-12-13T13:58:55.806Z,62.43
2018-12-13T14:04:00.056Z,61.59
2018-12-13T14:09:06.739Z,62.35
2018-12-13T14:14:10.974Z,62.30
2018-12-13T14:19:15.423Z,62.12
2018-12-13T14:29:28.982Z,63.74
2018-12-13T14:34:33.214Z,63.48
2018-12-13T14:39:37.488Z,62.83
2018-12-13T14:44:41.717Z,63.34
2018-12-13T14:49:46.069Z,64.30
2018-12-13T14:54:51.298Z,63.49
2018-12-13T14:59:55.578Z,62.43
2018-12-13T15:04:59.962Z,64.50
2018-12-13T15:10:06.219Z,63.63
2018-12-13T15:15:10.547Z,63.83
2018-12-13T15:20:15.734Z,63.69
2018-12-13T15:25:21.447Z,63.30
2018-12-13T15:30:25.884Z,63.45
2018-12-13T15:35:30.276Z,64.28
2018-12-13T15:40:34.864Z,65.16
2018-12-13T15:45:40.134Z,65.13
2018-12-13T15:50:44.912Z,63.58
2018-12-13T15:55:49.627Z,64.33
2018-12-13T16:00:54.243Z,64.58
2018-12-13T16:05:59.897Z,64.47
2018-12-13T16:11:06.299Z,63.48
2018-12-13T16:16:11.296Z,64.21
2018-12-13T16:21:17.000Z,64.53
2018-12-13T16:26:21.942Z,65.07
2018-12-13T16:31:26.886Z,64.00
2018-12-13T16:36:31.678Z,64.22
2018-12-13T16:41:36.873Z,64.73
2018-12-13T16:51:53.334Z,64.21
2018-12-13T16:56:58.087Z,64.78
2018-12-13T17:02:04.142Z,65.07
2018-12-13T17:07:08.866Z,64.97
2018-12-13T17:12:13.580Z,65.03
2018-12-13T17:17:18.870Z,65.13
2018-12-13T17:22:23.978Z,64.68
2018-12-13T17:27:28.411Z,64.93
2018-12-13T17:32:32.825Z,65.06
2018-12-13T17:37:37.248Z,65.50
2018-12-13T17:42:42.006Z,65.57
2018-12-13T17:47:46.435Z,65.40
2018-12-13T17:52:51.035Z,65.23
2018-12-13T17:57:55.329Z,65.94
2018-12-13T18:03:00.873Z,66.12
2018-12-13T18:08:05.545Z,65.58
2018-12-13T18:13:11.615Z,66.51
2018-12-13T18:18:16.069Z,65.93
2018-12-13T18:23:22.778Z,65.25
2018-12-13T18:28:29.231Z,66.58
2018-12-13T18:33:34.212Z,66.52
2018-12-13T18:38:39.547Z,65.06
2018-12-13T18:43:49.823Z,66.13
2018-12-13T18:48:59.414Z,66.79
2018-12-13T18:54:04.201Z,66.37
2018-12-13T18:59:09.620Z,66.63
2018-12-13T19:04:18.427Z,68.04
2018-12-13T19:09:26.003Z,66.48
2018-12-13T19:14:34.786Z,67.44
2018-12-13T19:19:41.210Z,66.40
2018-12-13T19:24:45.635Z,65.69
2018-12-13T19:29:51.762Z,66.46
2018-12-13T19:35:00.363Z,66.31
2018-12-13T19:40:07.283Z,66.24
2018-12-13T19:45:14.034Z,64.48
2018-12-13T19:50:21.205Z,65.24
2018-12-13T19:55:26.070Z,65.10
2018-12-13T20:00:32.304Z,64.73
2018-12-13T20:05:37.886Z,64.87
2018-12-13T20:10:45.124Z,64.18
2018-12-13T20:15:50.544Z,64.75
2018-12-13T20:20:55.352Z,65.48
2018-12-13T20:25:59.888Z,65.91
2018-12-13T20:31:06.389Z,65.78
2018-12-13T20:36:11.112Z,65.71
2018-12-13T20:41:17.480Z,65.88
2018-12-13T20:46:23.794Z,65.44
2018-12-13T21:18:57.653Z,64.81
2018-12-13T21:24:02.598Z,64.73
2018-12-13T21:29:07.585Z,65.17
2018-12-13T21:34:12.430Z,64.91
2018-12-13T21:44:25.333Z,64.26
2018-12-13T21:49:33.172Z,68.05
2018-12-13T21:54:38.352Z,66.61
2018-12-13T21:59:44.676Z,65.27
2018-12-13T22:04:51.585Z,65.27
2018-12-13T22:09:56.797Z,65.29
2018-12-13T22:15:02.943Z,65.46
2018-12-13T22:20:11.164Z,65.15
2018-12-13T22:25:16.364Z,68.50
2018-12-13T22:30:21.410Z,65.36
2018-12-13T22:35:28.220Z,65.40
2018-12-13T22:40:33.767Z,65.49
2018-12-13T22:45:38.796Z,64.98
2018-12-13T22:50:43.857Z,65.61
2018-12-13T22:55:49.737Z,65.17
2018-12-13T23:00:54.858Z,66.39
2018-12-13T23:06:00.189Z,66.26
2018-12-13T23:11:06.132Z,66.82
2018-12-13T23:16:11.239Z,66.25
2018-12-13T23:21:16.364Z,65.91
2018-12-13T23:26:21.570Z,66.68
2018-12-13T23:31:26.572Z,66.42
2018-12-13T23:36:31.548Z,67.45
2018-12-13T23:41:39.274Z,67.28
2018-12-13T23:46:43.610Z,66.79
2018-12-13T23:51:49.605Z,66.94
2018-12-13T23:56:55.269Z,67.25
